createdAt,value
2019-03-09T00:01:30.209Z,6.90
2019-03-09T00:03:56.196Z,6.90
2019-03-09T00:06:22.189Z,6.90
2019-03-09T00:08:48.136Z,6.90
2019-03-09T00:11:14.132Z,6.90
2019-03-09T00:13:41.036Z,6.80
2019-03-09T00:16:06.109Z,6.80
2019-03-09T00:18:32.812Z,6.70
2019-03-09T00:20:58.804Z,6.70
2019-03-09T00:23:24.772Z,6.70
2019-03-09T00:25:50.751Z,6.70
2019-03-09T00:28:16.797Z,6.70
2019-03-09T00:30:42.783Z,6.70
2019-03-09T00:33:09.506Z,6.60
2019-03-09T00:35:35.448Z,6.60
2019-03-09T00:38:01.506Z,6.60
2019-03-09T00:40:27.472Z,6.60
2019-03-09T00:42:54.218Z,6.50
2019-03-09T00:45:20.949Z,6.50
2019-03-09T00:47:46.975Z,6.50
2019-03-09T00:50:12.952Z,6.50
2019-03-09T00:52:38.933Z,6.50
2019-03-09T00:55:04.952Z,6.50
2019-03-09T00:57:31.690Z,6.50
2019-03-09T00:59:57.642Z,6.50
2019-03-09T01:02:23.641Z,6.50
2019-03-09T01:04:50.349Z,6.40
2019-03-09T01:07:16.396Z,6.40
2019-03-09T01:09:42.404Z,6.40
2019-03-09T01:12:08.364Z,6.50
2019-03-09T01:14:35.100Z,6.50
2019-03-09T01:17:01.821Z,6.50
2019-03-09T01:19:27.799Z,6.50
2019-03-09T01:21:54.499Z,6.50
2019-03-09T01:24:20.483Z,6.50
2019-03-09T01:26:46.437Z,6.50
2019-03-09T01:29:12.408Z,6.50
2019-03-09T01:31:38.376Z,6.50
2019-03-09T01:34:04.364Z,6.50
2019-03-09T01:36:30.321Z,6.50
2019-03-09T01:38:56.304Z,6.50
2019-03-09T01:41:22.266Z,6.50
2019-03-09T01:43:49.008Z,6.50
2019-03-09T01:46:14.979Z,6.50
2019-03-09T01:48:40.975Z,6.50
2019-03-09T01:51:06.941Z,6.50
2019-03-09T01:53:36.655Z,6.50
2019-03-09T01:55:58.946Z,6.50
2019-03-09T01:58:24.959Z,6.50
2019-03-09T02:00:50.934Z,6.50
2019-03-09T02:03:16.917Z,6.50
2019-03-09T02:05:42.910Z,6.50
2019-03-09T02:08:08.916Z,6.50
2019-03-09T02:10:34.981Z,6.50
2019-03-09T02:13:01.690Z,6.60
2019-03-09T02:15:27.707Z,6.60
2019-03-09T02:17:53.691Z,6.70
2019-03-09T02:20:19.674Z,6.60
2019-03-09T02:22:45.614Z,6.70
2019-03-09T02:25:12.348Z,6.70
2019-03-09T02:27:39.063Z,6.70
2019-03-09T02:30:05.073Z,6.70
2019-03-09T02:32:31.036Z,6.80
2019-03-09T02:34:57.760Z,6.80
2019-03-09T02:37:23.728Z,6.80
2019-03-09T02:39:49.704Z,6.80
2019-03-09T02:42:15.652Z,6.80
2019-03-09T02:44:41.648Z,6.90
2019-03-09T02:47:07.608Z,6.90
2019-03-09T02:49:33.603Z,6.90
2019-03-09T02:52:00.323Z,6.90
2019-03-09T02:54:26.327Z,6.90
2019-03-09T02:56:52.310Z,7.00
2019-03-09T02:59:18.393Z,7.00
2019-03-09T03:01:44.336Z,7.00
2019-03-09T03:04:11.048Z,7.10
2019-03-09T03:06:37.031Z,7.10
2019-03-09T03:09:02.998Z,7.10
2019-03-09T03:14:01.526Z,7.10
2019-03-09T03:16:28.223Z,7.20
2019-03-09T03:18:54.178Z,7.20
2019-03-09T03:21:20.157Z,7.20
2019-03-09T03:23:46.115Z,7.30
2019-03-09T03:26:12.113Z,7.30
2019-03-09T03:28:38.088Z,7.30
2019-03-09T03:31:04.830Z,7.40
2019-03-09T03:33:30.843Z,7.30
2019-03-09T03:35:57.572Z,7.40
2019-03-09T03:38:23.543Z,7.40
2019-03-09T03:40:49.525Z,7.40
2019-03-09T03:43:16.387Z,7.50
2019-03-09T03:45:42.289Z,7.50
2019-03-09T03:48:08.995Z,7.50
2019-03-09T03:50:35.017Z,7.50
2019-03-09T03:53:00.985Z,7.50
2019-03-09T03:55:26.943Z,7.50
2019-03-09T03:57:52.945Z,7.50
2019-03-09T04:00:18.947Z,7.50
2019-03-09T04:02:44.961Z,7.50
2019-03-09T04:05:10.943Z,7.40
2019-03-09T04:07:36.939Z,7.30
2019-03-09T04:10:02.910Z,7.30
2019-03-09T04:12:28.904Z,7.40
2019-03-09T04:14:54.857Z,7.40
2019-03-09T04:17:20.867Z,7.40
2019-03-09T04:19:46.939Z,7.50
2019-03-09T04:22:13.671Z,7.50
2019-03-09T04:24:39.663Z,7.50
2019-03-09T04:27:05.661Z,7.60
2019-03-09T04:29:31.640Z,7.50
2019-03-09T04:31:58.381Z,7.50
2019-03-09T04:34:25.070Z,7.60
2019-03-09T04:36:51.065Z,7.60
2019-03-09T04:39:17.781Z,7.60
2019-03-09T04:41:44.493Z,7.60
2019-03-09T04:44:10.469Z,7.70
2019-03-09T04:46:36.417Z,7.60
2019-03-09T04:49:02.450Z,7.60
2019-03-09T04:51:28.403Z,7.50
2019-03-09T04:53:54.388Z,7.50
2019-03-09T04:56:20.417Z,7.60
2019-03-09T04:58:47.191Z,7.70
2019-03-09T05:01:13.182Z,7.60
2019-03-09T05:03:39.173Z,7.60
2019-03-09T05:06:05.147Z,7.60
2019-03-09T05:08:31.146Z,7.60
2019-03-09T05:10:57.126Z,7.60
2019-03-09T05:13:23.088Z,7.70
2019-03-09T05:15:49.087Z,7.60
2019-03-09T05:18:15.060Z,7.60
2019-03-09T05:20:41.060Z,7.60
2019-03-09T05:23:07.032Z,7.50
2019-03-09T05:25:33.737Z,7.40
2019-03-09T05:27:59.715Z,7.40
2019-03-09T05:30:26.425Z,7.30
2019-03-09T05:32:52.395Z,7.30
2019-03-09T05:35:18.379Z,7.30
2019-03-09T05:37:45.067Z,7.10
2019-03-09T05:40:11.046Z,7.10
2019-03-09T05:42:37.757Z,7.00
2019-03-09T05:45:03.746Z,7.00
2019-03-09T05:47:29.695Z,6.90
2019-03-09T05:49:55.702Z,6.90
2019-03-09T05:52:21.662Z,6.90
2019-03-09T05:54:47.630Z,6.80
2019-03-09T05:57:13.606Z,6.80
2019-03-09T05:59:40.396Z,6.70
2019-03-09T06:02:06.376Z,6.70
2019-03-09T06:04:33.112Z,6.70
2019-03-09T06:06:59.097Z,6.70
2019-03-09T06:09:25.057Z,6.70
2019-03-09T06:11:51.042Z,6.70
2019-03-09T06:14:17.008Z,6.60
2019-03-09T06:16:43.011Z,6.60
2019-03-09T06:19:09.778Z,6.60
2019-03-09T06:21:36.494Z,6.60
2019-03-09T06:24:02.447Z,6.60
2019-03-09T06:26:29.168Z,6.60
2019-03-09T06:28:55.138Z,6.60
2019-03-09T06:31:21.141Z,6.70
2019-03-09T06:33:47.831Z,6.80
2019-03-09T06:36:13.813Z,6.80
2019-03-09T06:38:39.779Z,6.90
2019-03-09T06:41:05.748Z,7.00
2019-03-09T06:43:32.471Z,7.10
2019-03-09T06:45:58.424Z,7.10
2019-03-09T06:48:24.408Z,7.10
2019-03-09T06:50:50.369Z,7.00
2019-03-09T06:53:16.355Z,7.10
2019-03-09T06:55:42.317Z,7.30
2019-03-09T06:58:08.299Z,7.30
2019-03-09T07:00:34.285Z,7.40
2019-03-09T07:03:00.269Z,7.50
2019-03-09T07:05:26.226Z,7.50
2019-03-09T07:07:52.215Z,7.60
2019-03-09T07:10:18.920Z,7.70
2019-03-09T07:12:44.916Z,7.70
2019-03-09T07:15:10.880Z,7.80
2019-03-09T07:17:36.872Z,7.80
2019-03-09T07:20:12.163Z,7.80
2019-03-09T07:22:28.864Z,7.80
2019-03-09T07:24:54.861Z,7.90
2019-03-09T07:27:20.860Z,7.90
2019-03-09T07:29:47.631Z,8.00
2019-03-09T07:32:13.589Z,8.00
2019-03-09T07:34:39.585Z,8.00
2019-03-09T07:37:06.300Z,8.30
2019-03-09T07:39:32.297Z,8.30
2019-03-09T07:41:58.289Z,8.40
2019-03-09T07:44:25.015Z,8.50
2019-03-09T07:46:51.756Z,8.50
2019-03-09T07:49:18.512Z,8.60
2019-03-09T07:51:45.252Z,8.70
2019-03-09T07:54:11.257Z,8.60
2019-03-09T07:56:37.977Z,9.40
2019-03-09T07:59:03.978Z,9.30
2019-03-09T08:01:29.986Z,9.70
2019-03-09T08:03:55.952Z,9.60
2019-03-09T08:06:21.952Z,9.40
2019-03-09T08:08:47.928Z,9.30
2019-03-09T08:11:14.669Z,9.00
2019-03-09T08:13:41.375Z,9.00
2019-03-09T08:16:07.382Z,9.00
2019-03-09T08:18:33.365Z,8.90
2019-03-09T08:20:59.388Z,8.80
2019-03-09T08:23:25.347Z,8.80
2019-03-09T08:25:51.357Z,8.80
2019-03-09T08:28:17.327Z,8.90
2019-03-09T08:30:43.333Z,8.90
2019-03-09T08:33:09.344Z,8.90
2019-03-09T08:35:35.332Z,9.10
2019-03-09T08:38:01.310Z,9.20
2019-03-09T08:40:27.314Z,9.30
2019-03-09T08:42:53.270Z,9.30
2019-03-09T08:45:20.026Z,9.40
2019-03-09T08:47:51.972Z,9.30
2019-03-09T08:50:12.109Z,9.40
2019-03-09T08:52:38.060Z,9.40
2019-03-09T08:55:04.822Z,9.50
2019-03-09T08:57:31.561Z,9.70
2019-03-09T08:59:58.334Z,9.90
2019-03-09T09:02:25.019Z,9.70
2019-03-09T09:04:50.989Z,9.70
2019-03-09T09:07:16.996Z,9.60
2019-03-09T09:09:43.721Z,9.50
2019-03-09T09:12:09.720Z,9.50
2019-03-09T09:14:35.702Z,9.50
2019-03-09T09:17:01.697Z,9.50
2019-03-09T09:19:27.669Z,9.60
2019-03-09T09:21:53.679Z,9.90
2019-03-09T09:24:19.690Z,10.10
2019-03-09T09:26:45.744Z,10.40
2019-03-09T09:29:11.725Z,10.50
2019-03-09T09:31:37.732Z,10.70
2019-03-09T09:34:03.692Z,10.40
2019-03-09T09:36:29.713Z,10.30
2019-03-09T09:38:55.703Z,10.50
2019-03-09T09:41:22.463Z,10.90
2019-03-09T09:43:48.428Z,10.90
2019-03-09T09:46:14.393Z,11.00
2019-03-09T09:48:41.130Z,10.70
2019-03-09T09:51:07.842Z,10.50
2019-03-09T09:53:33.858Z,10.50
2019-03-09T09:55:59.842Z,10.60
2019-03-09T09:58:25.854Z,11.30
2019-03-09T10:00:52.564Z,11.90
2019-03-09T10:03:18.565Z,11.90
2019-03-09T10:05:44.545Z,12.30
2019-03-09T10:08:10.563Z,12.80
2019-03-09T10:10:37.276Z,13.80
2019-03-09T10:13:04.039Z,13.80
2019-03-09T10:15:30.034Z,13.70
2019-03-09T10:17:56.022Z,13.20
2019-03-09T10:20:21.985Z,12.80
2019-03-09T10:22:47.977Z,12.30
2019-03-09T10:25:13.964Z,12.00
2019-03-09T10:27:40.691Z,11.90
2019-03-09T10:30:07.399Z,11.80
2019-03-09T10:32:33.371Z,11.80
2019-03-09T10:34:59.354Z,11.40
2019-03-09T10:37:25.309Z,12.00
2019-03-09T10:39:51.320Z,11.70
2019-03-09T10:42:18.049Z,11.10
2019-03-09T10:44:44.043Z,11.10
2019-03-09T10:47:10.125Z,11.10
2019-03-09T10:49:36.136Z,11.00
2019-03-09T10:52:02.839Z,11.30
2019-03-09T10:54:35.765Z,11.30
2019-03-09T10:56:54.834Z,12.10
2019-03-09T10:59:20.829Z,12.00
2019-03-09T11:01:46.805Z,11.60
2019-03-09T11:04:12.783Z,11.90
2019-03-09T11:06:39.493Z,12.20
2019-03-09T11:09:05.519Z,12.20
2019-03-09T11:11:31.497Z,12.20
2019-03-09T11:13:57.560Z,11.90
2019-03-09T11:16:23.534Z,11.60
2019-03-09T11:18:50.258Z,11.60
2019-03-09T11:21:16.998Z,11.90
2019-03-09T11:23:43.779Z,12.20
2019-03-09T11:26:09.768Z,12.10
2019-03-09T11:28:36.478Z,12.30
2019-03-09T11:31:03.241Z,12.20
2019-03-09T11:33:29.205Z,12.20
2019-03-09T11:35:55.199Z,11.80
2019-03-09T11:38:21.897Z,11.90
2019-03-09T11:40:56.881Z,11.80
2019-03-09T11:43:13.927Z,11.90
2019-03-09T11:45:39.932Z,12.10
2019-03-09T11:48:05.912Z,12.10
2019-03-09T11:50:31.923Z,12.00
2019-03-09T11:52:57.906Z,12.10
2019-03-09T11:55:23.919Z,12.10
2019-03-09T11:57:49.897Z,12.00
2019-03-09T12:00:15.880Z,11.90
2019-03-09T12:02:41.891Z,11.70
2019-03-09T12:05:07.870Z,11.60
2019-03-09T12:07:33.871Z,11.70
2019-03-09T12:09:59.839Z,11.90
2019-03-09T12:12:26.564Z,12.10
2019-03-09T12:14:52.557Z,12.10
2019-03-09T12:17:18.544Z,12.10
2019-03-09T12:19:44.531Z,11.90
2019-03-09T12:22:10.533Z,11.60
2019-03-09T12:24:36.506Z,11.50
2019-03-09T12:27:02.816Z,11.60
2019-03-09T12:29:29.576Z,11.70
2019-03-09T12:31:56.296Z,11.70
2019-03-09T12:34:23.035Z,11.50
2019-03-09T12:36:49.005Z,11.50
2019-03-09T12:39:15.018Z,11.30
2019-03-09T12:41:40.964Z,11.20
2019-03-09T12:44:06.961Z,11.10
2019-03-09T12:46:32.944Z,11.00
2019-03-09T12:48:58.949Z,10.80
2019-03-09T12:51:24.956Z,10.80
2019-03-09T12:53:50.969Z,10.80
2019-03-09T12:56:16.916Z,10.50
2019-03-09T12:58:42.899Z,10.30
2019-03-09T13:01:08.888Z,10.50
2019-03-09T13:03:34.872Z,10.60
2019-03-09T13:06:00.854Z,10.70
2019-03-09T13:08:27.606Z,10.80
2019-03-09T13:10:55.795Z,10.80
2019-03-09T13:13:19.673Z,10.90
2019-03-09T13:15:45.654Z,10.90
2019-03-09T13:18:12.370Z,11.10
2019-03-09T13:20:38.391Z,11.00
2019-03-09T13:23:04.353Z,11.10
2019-03-09T13:25:30.379Z,11.10
2019-03-09T13:27:57.092Z,11.10
2019-03-09T13:30:23.094Z,11.10
2019-03-09T13:32:49.086Z,11.00
2019-03-09T13:35:15.083Z,10.90
2019-03-09T13:37:41.113Z,10.80
2019-03-09T13:40:07.128Z,10.80
2019-03-09T13:42:33.107Z,10.70
2019-03-09T13:44:59.099Z,10.70
2019-03-09T13:47:25.107Z,10.50
2019-03-09T13:49:51.128Z,10.40
2019-03-09T13:52:17.839Z,10.20
2019-03-09T13:54:43.825Z,10.10
2019-03-09T13:57:09.805Z,10.00
2019-03-09T13:59:36.553Z,9.20
2019-03-09T14:02:03.256Z,8.70
2019-03-09T14:04:29.263Z,8.70
2019-03-09T14:06:55.258Z,8.50
2019-03-09T14:09:21.266Z,8.30
2019-03-09T14:11:47.978Z,8.40
2019-03-09T14:16:46.553Z,8.40
2019-03-09T14:19:12.533Z,8.30
2019-03-09T14:21:38.533Z,8.30
2019-03-09T14:24:05.263Z,8.30
2019-03-09T14:26:31.264Z,8.30
2019-03-09T14:28:57.250Z,8.20
2019-03-09T14:31:23.244Z,8.20
2019-03-09T14:33:49.248Z,8.20
2019-03-09T14:36:15.257Z,8.10
2019-03-09T14:38:41.229Z,7.90
2019-03-09T14:41:07.962Z,7.40
2019-03-09T14:43:34.668Z,7.20
2019-03-09T14:46:00.667Z,7.20
2019-03-09T14:48:26.664Z,6.90
2019-03-09T14:50:53.383Z,6.90
2019-03-09T14:53:20.066Z,7.00
2019-03-09T14:55:46.102Z,7.00
2019-03-09T14:58:12.064Z,7.00
2019-03-09T15:00:38.808Z,7.00
2019-03-09T15:03:05.534Z,7.10
2019-03-09T15:05:32.288Z,7.20
2019-03-09T15:07:58.988Z,7.40
2019-03-09T15:10:24.993Z,7.40
2019-03-09T15:12:50.978Z,7.60
2019-03-09T15:15:17.700Z,7.80
2019-03-09T15:17:43.721Z,7.80
2019-03-09T15:20:09.690Z,7.80
2019-03-09T15:22:35.693Z,7.80
2019-03-09T15:25:02.422Z,8.00
2019-03-09T15:27:29.183Z,8.10
2019-03-09T15:29:55.173Z,8.10
2019-03-09T15:32:21.172Z,8.30
2019-03-09T15:34:47.145Z,8.40
2019-03-09T15:37:13.894Z,8.70
2019-03-09T15:39:39.871Z,8.70
2019-03-09T15:42:05.873Z,8.80
2019-03-09T15:44:31.867Z,8.90
2019-03-09T15:46:57.850Z,9.00
2019-03-09T15:49:23.833Z,9.00
2019-03-09T15:51:49.824Z,9.00
2019-03-09T15:54:15.900Z,8.80
2019-03-09T15:56:41.926Z,8.70
2019-03-09T15:59:07.917Z,8.70
2019-03-09T16:01:40.713Z,8.70
2019-03-09T16:04:06.694Z,8.50
2019-03-09T16:06:32.683Z,8.50
2019-03-09T16:08:58.665Z,8.40
2019-03-09T16:11:24.652Z,8.30
2019-03-09T16:13:51.397Z,8.20
2019-03-09T16:16:18.141Z,8.20
2019-03-09T16:18:44.852Z,8.10
2019-03-09T16:21:10.847Z,8.10
2019-03-09T16:23:36.885Z,8.00
2019-03-09T16:26:02.874Z,7.70
2019-03-09T16:28:28.868Z,7.40
2019-03-09T16:30:55.588Z,6.90
2019-03-09T16:33:21.577Z,6.90
2019-03-09T16:35:47.551Z,6.80
2019-03-09T16:38:14.323Z,6.60
2019-03-09T16:40:41.067Z,6.50
2019-03-09T16:43:07.080Z,6.50
2019-03-09T16:45:33.081Z,6.40
2019-03-09T16:47:59.092Z,6.30
2019-03-09T16:50:25.068Z,6.20
2019-03-09T16:52:51.049Z,6.20
2019-03-09T16:55:17.026Z,6.10
2019-03-09T16:57:43.026Z,6.10
2019-03-09T17:00:08.999Z,6.00
2019-03-09T17:02:34.998Z,5.90
2019-03-09T17:05:00.964Z,5.90
2019-03-09T17:07:27.737Z,5.80
2019-03-09T17:09:53.717Z,5.80
2019-03-09T17:12:19.694Z,5.80
2019-03-09T17:14:45.683Z,5.80
2019-03-09T17:17:12.384Z,6.00
2019-03-09T17:19:38.390Z,5.90
2019-03-09T17:22:04.373Z,6.00
2019-03-09T17:24:31.100Z,6.00
2019-03-09T17:26:57.817Z,6.10
2019-03-09T17:29:23.803Z,6.00
2019-03-09T17:31:49.774Z,6.10
2019-03-09T17:34:15.775Z,6.20
2019-03-09T17:36:41.754Z,6.20
2019-03-09T17:39:08.511Z,6.20
2019-03-09T17:41:34.492Z,6.10
2019-03-09T17:44:01.237Z,6.20
2019-03-09T17:46:27.220Z,6.20
2019-03-09T17:48:53.218Z,6.20
2019-03-09T17:51:19.200Z,6.20
2019-03-09T17:53:45.193Z,6.10
2019-03-09T17:56:11.196Z,6.00
2019-03-09T17:58:37.188Z,6.00
2019-03-09T18:01:03.919Z,5.90
2019-03-09T18:03:29.923Z,5.90
2019-03-09T18:05:55.930Z,5.90
2019-03-09T18:08:21.903Z,5.80
2019-03-09T18:10:47.907Z,5.70
2019-03-09T18:13:13.875Z,5.70
2019-03-09T18:15:39.927Z,5.60
2019-03-09T18:18:05.940Z,5.50
2019-03-09T18:20:31.940Z,5.60
2019-03-09T18:22:57.920Z,5.50
2019-03-09T18:25:23.929Z,5.50
2019-03-09T18:27:49.888Z,5.50
2019-03-09T18:30:15.891Z,5.50
2019-03-09T18:32:41.852Z,5.40
2019-03-09T18:35:07.866Z,5.40
2019-03-09T18:37:33.848Z,5.40
2019-03-09T18:39:59.838Z,5.50
2019-03-09T18:42:25.799Z,5.50
2019-03-09T18:44:51.786Z,5.50
2019-03-09T18:47:17.743Z,5.50
2019-03-09T18:49:43.756Z,5.50
2019-03-09T18:52:09.724Z,5.50
2019-03-09T18:54:36.440Z,5.70
2019-03-09T18:57:02.399Z,5.70
2019-03-09T18:59:28.378Z,5.80
2019-03-09T19:01:54.355Z,5.80
2019-03-09T19:04:20.357Z,5.80
2019-03-09T19:06:46.353Z,5.80
2019-03-09T19:09:12.328Z,5.80
2019-03-09T19:11:38.330Z,5.70
2019-03-09T19:14:04.285Z,5.70
2019-03-09T19:16:30.274Z,5.70
2019-03-09T19:18:56.265Z,5.60
2019-03-09T19:21:22.252Z,5.60
2019-03-09T19:23:48.220Z,5.50
2019-03-09T19:26:14.972Z,5.40
2019-03-09T19:28:41.682Z,5.30
2019-03-09T19:31:07.690Z,5.30
2019-03-09T19:33:33.664Z,5.30
2019-03-09T19:36:00.417Z,5.20
2019-03-09T19:38:26.421Z,5.20
2019-03-09T19:40:53.178Z,5.20
2019-03-09T19:43:19.167Z,5.20
2019-03-09T19:45:45.165Z,5.20
2019-03-09T19:48:11.163Z,5.20
2019-03-09T19:50:37.185Z,5.10
2019-03-09T19:53:03.150Z,5.10
2019-03-09T19:55:29.233Z,5.10
2019-03-09T19:57:55.211Z,5.10
2019-03-09T20:00:21.955Z,5.10
2019-03-09T20:02:48.726Z,5.10
2019-03-09T20:05:14.722Z,5.10
2019-03-09T20:07:41.430Z,5.10
2019-03-09T20:10:07.413Z,5.10
2019-03-09T20:12:33.414Z,5.10
2019-03-09T20:15:00.154Z,5.00
2019-03-09T20:17:26.211Z,5.00
2019-03-09T20:19:52.171Z,5.00
2019-03-09T20:22:18.160Z,5.10
2019-03-09T20:24:44.125Z,5.10
2019-03-09T20:27:10.168Z,5.10
2019-03-09T20:29:36.888Z,5.10
2019-03-09T20:32:02.911Z,5.10
2019-03-09T20:34:28.871Z,5.10
2019-03-09T20:36:55.618Z,5.10
2019-03-09T20:39:21.894Z,5.10
2019-03-09T20:41:48.670Z,5.10
2019-03-09T20:44:15.401Z,5.10
2019-03-09T20:46:42.338Z,5.10
2019-03-09T20:49:08.204Z,5.10
2019-03-09T20:51:34.211Z,5.10
2019-03-09T20:54:00.171Z,5.10
2019-03-09T20:56:26.144Z,5.00
2019-03-09T20:58:52.888Z,5.00
2019-03-09T21:01:19.586Z,5.00
2019-03-09T21:03:45.592Z,5.00
2019-03-09T21:06:11.606Z,5.00
2019-03-09T21:08:37.598Z,5.10
2019-03-09T21:11:04.415Z,5.10
2019-03-09T21:13:29.622Z,5.20
2019-03-09T21:15:55.604Z,5.20
2019-03-09T21:18:21.614Z,5.20
2019-03-09T21:20:47.589Z,5.20
2019-03-09T21:23:13.664Z,5.20
2019-03-09T21:25:39.666Z,5.20
2019-03-09T21:28:06.406Z,5.10
2019-03-09T21:30:33.103Z,5.10
2019-03-09T21:32:59.099Z,5.10
2019-03-09T21:35:25.076Z,5.20
2019-03-09T21:37:51.054Z,5.10
2019-03-09T21:40:17.021Z,5.20
2019-03-09T21:42:43.750Z,5.20
2019-03-09T21:45:09.746Z,5.20
2019-03-09T21:47:35.718Z,5.30
2019-03-09T21:50:02.459Z,5.30
2019-03-09T21:52:29.177Z,5.40
2019-03-09T21:54:55.157Z,5.40
2019-03-09T21:57:21.126Z,5.40
2019-03-09T21:59:47.130Z,5.40
2019-03-09T22:02:13.116Z,5.50
2019-03-09T22:04:39.111Z,5.50
2019-03-09T22:07:05.810Z,5.50
2019-03-09T22:09:31.810Z,5.50
2019-03-09T22:11:57.784Z,5.50
2019-03-09T22:14:23.800Z,5.50
2019-03-09T22:16:56.554Z,5.50
2019-03-09T22:19:15.869Z,5.50
2019-03-09T22:21:42.592Z,5.60
2019-03-09T22:24:08.549Z,5.60
2019-03-09T22:26:34.548Z,5.60
2019-03-09T22:29:01.277Z,5.70
2019-03-09T22:31:27.258Z,5.70
2019-03-09T22:33:53.210Z,5.70
2019-03-09T22:36:19.226Z,5.70
2019-03-09T22:38:45.198Z,5.70
2019-03-09T22:41:11.245Z,5.70
2019-03-09T22:43:37.229Z,5.70
2019-03-09T22:46:03.960Z,5.60
2019-03-09T22:48:29.939Z,5.60
2019-03-09T22:50:55.918Z,5.70
2019-03-09T22:53:22.627Z,5.70
2019-03-09T22:55:48.566Z,5.70
2019-03-09T22:58:14.565Z,5.60
2019-03-09T23:00:40.525Z,5.70
2019-03-09T23:03:06.507Z,5.70
2019-03-09T23:05:32.480Z,5.70
2019-03-09T23:07:58.480Z,5.60
2019-03-09T23:10:24.454Z,5.60
2019-03-09T23:12:50.461Z,5.60
2019-03-09T23:15:16.416Z,5.60
2019-03-09T23:17:42.420Z,5.60
2019-03-09T23:20:08.390Z,5.60
2019-03-09T23:22:34.381Z,5.60
2019-03-09T23:25:00.343Z,5.60
2019-03-09T23:27:26.333Z,5.60
2019-03-09T23:29:52.330Z,5.70
2019-03-09T23:32:18.291Z,5.80
2019-03-09T23:34:44.271Z,5.80
2019-03-09T23:37:10.245Z,5.80
2019-03-09T23:39:36.230Z,6.00
2019-03-09T23:42:02.244Z,6.00
2019-03-09T23:44:28.233Z,6.00
2019-03-09T23:46:54.944Z,6.10
2019-03-09T23:49:20.930Z,6.10
2019-03-09T23:51:46.895Z,6.10
2019-03-09T23:54:12.884Z,6.10
2019-03-09T23:56:38.861Z,5.00
2019-03-09T23:59:04.837Z,6.10
